KCTZ/CTZ METAR and TAF weather

Enter ICAO airport designator
Station Type Date Time Source
KCTZ METAR 2018/01/24 07:15 UTC NOAA

KCTZ 240715Z AUTO 00000KT 10SM CLR 05/00 A3003 RMK AO2 T00510003


Station Type Date Time Source
KCTZ Decoded METAR 2018/01/24 07:15 UTC NOAA

Clinton, Sampson County Airport, NC, United States (KCTZ) 34-58-32N 078-21-53W
Jan 24, 2018 - 02:15 AM EST / 2018.01.24 0715 UTC
Wind: Calm:0
Visibility: 10 mile(s):0
Sky conditions: clear
Temperature: 41.2 F (5.1 C)
Dew Point: 32.5 F (0.3 C)
Relative Humidity: 71%
Pressure (altimeter): 30.03 in. Hg (1016 hPa)
ob: KCTZ 240715Z AUTO 00000KT 10SM CLR 05/00 A3003 RMK AO2 T00510003
cycle: 7

Station Type Date Time Source
KCTZ TAF UTC NOAA

Error!


Example: see airport list